sensor_id;sensor_type;location;lat;lon;timestamp;P1;durP1;ratioP1;P2;durP2;ratioP2
78646;SDS011;67961;43.460;3.762;2023-06-01T00:00:33;5.50;;;4.10;;
78646;SDS011;67961;43.460;3.762;2023-06-01T00:02:58;10.43;;;4.57;;
78646;SDS011;67961;43.460;3.762;2023-06-01T00:05:24;8.27;;;4.25;;
78646;SDS011;67961;43.460;3.762;2023-06-01T00:07:50;7.00;;;4.55;;
78646;SDS011;67961;43.460;3.762;2023-06-01T00:10:15;8.13;;;4.10;;
78646;SDS011;67961;43.460;3.762;2023-06-01T00:12:41;6.40;;;4.07;;
78646;SDS011;67961;43.460;3.762;2023-06-01T00:15:08;6.78;;;4.55;;
78646;SDS011;67961;43.460;3.762;2023-06-01T00:17:34;6.68;;;4.10;;
78646;SDS011;67961;43.460;3.762;2023-06-01T00:19:59;8.07;;;4.45;;
78646;SDS011;67961;43.460;3.762;2023-06-01T00:22:33;8.13;;;3.92;;
78646;SDS011;67961;43.460;3.762;2023-06-01T00:24:59;7.03;;;4.45;;
78646;SDS011;67961;43.460;3.762;2023-06-01T00:27:25;6.80;;;4.20;;
78646;SDS011;67961;43.460;3.762;2023-06-01T00:29:51;6.85;;;4.32;;
78646;SDS011;67961;43.460;3.762;2023-06-01T00:32:17;7.38;;;4.35;;
78646;SDS011;67961;43.460;3.762;2023-06-01T00:34:42;6.80;;;4.30;;
78646;SDS011;67961;43.460;3.762;2023-06-01T00:37:08;6.43;;;4.05;;
78646;SDS011;67961;43.460;3.762;2023-06-01T00:39:34;6.13;;;4.13;;
78646;SDS011;67961;43.460;3.762;2023-06-01T00:41:59;6.20;;;3.67;;
78646;SDS011;67961;43.460;3.762;2023-06-01T00:44:26;7.90;;;4.53;;
78646;SDS011;67961;43.460;3.762;2023-06-01T00:46:52;6.13;;;4.22;;
78646;SDS011;67961;43.460;3.762;2023-06-01T00:49:18;5.80;;;4.15;;
78646;SDS011;67961;43.460;3.762;2023-06-01T00:51:44;6.68;;;4.20;;
78646;SDS011;67961;43.460;3.762;2023-06-01T00:54:10;6.80;;;3.55;;
78646;SDS011;67961;43.460;3.762;2023-06-01T00:56:36;7.55;;;4.13;;
78646;SDS011;67961;43.460;3.762;2023-06-01T00:59:02;6.28;;;4.43;;
78646;SDS011;67961;43.460;3.762;2023-06-01T01:01:28;7.72;;;4.43;;
78646;SDS011;67961;43.460;3.762;2023-06-01T01:03:54;5.97;;;3.63;;
78646;SDS011;67961;43.460;3.762;2023-06-01T01:09:10;7.68;;;4.30;;
78646;SDS011;67961;43.460;3.762;2023-06-01T01:11:57;5.60;;;4.15;;
78646;SDS011;67961;43.460;3.762;2023-06-01T01:14:30;8.02;;;4.30;;
78646;SDS011;67961;43.460;3.762;2023-06-01T01:17:07;7.88;;;4.28;;
78646;SDS011;67961;43.460;3.762;2023-06-01T01:30:16;7.03;;;4.03;;
78646;SDS011;67961;43.460;3.762;2023-06-01T01:32:48;7.22;;;4.10;;
78646;SDS011;67961;43.460;3.762;2023-06-01T01:35:15;6.13;;;4.20;;
78646;SDS011;67961;43.460;3.762;2023-06-01T01:37:51;8.25;;;4.43;;
78646;SDS011;67961;43.460;3.762;2023-06-01T01:40:17;6.32;;;4.25;;
78646;SDS011;67961;43.460;3.762;2023-06-01T01:42:43;7.82;;;4.47;;
78646;SDS011;67961;43.460;3.762;2023-06-01T01:45:09;6.25;;;4.55;;
78646;SDS011;67961;43.460;3.762;2023-06-01T01:50:44;6.95;;;4.10;;
78646;SDS011;67961;43.460;3.762;2023-06-01T01:53:20;5.55;;;4.00;;
78646;SDS011;67961;43.460;3.762;2023-06-01T01:55:49;9.23;;;4.30;;
78646;SDS011;67961;43.460;3.762;2023-06-01T01:58:17;6.57;;;3.97;;
78646;SDS011;67961;43.460;3.762;2023-06-01T02:00:43;6.35;;;4.30;;
78646;SDS011;67961;43.460;3.762;2023-06-01T02:03:16;7.20;;;3.95;;
78646;SDS011;67961;43.460;3.762;2023-06-01T02:05:42;6.38;;;4.30;;
78646;SDS011;67961;43.460;3.762;2023-06-01T02:08:09;4.85;;;3.78;;
78646;SDS011;67961;43.460;3.762;2023-06-01T02:10:34;7.32;;;4.50;;
78646;SDS011;67961;43.460;3.762;2023-06-01T02:13:05;5.60;;;3.70;;
78646;SDS011;67961;43.460;3.762;2023-06-01T02:15:31;6.28;;;3.90;;
78646;SDS011;67961;43.460;3.762;2023-06-01T02:17:57;7.10;;;4.60;;
78646;SDS011;67961;43.460;3.762;2023-06-01T02:20:24;7.47;;;3.90;;
78646;SDS011;67961;43.460;3.762;2023-06-01T02:22:50;7.78;;;3.75;;
78646;SDS011;67961;43.460;3.762;2023-06-01T02:25:15;8.45;;;4.28;;
78646;SDS011;67961;43.460;3.762;2023-06-01T02:27:44;5.78;;;4.25;;
78646;SDS011;67961;43.460;3.762;2023-06-01T02:30:10;5.78;;;4.00;;
78646;SDS011;67961;43.460;3.762;2023-06-01T02:32:36;6.10;;;3.72;;
78646;SDS011;67961;43.460;3.762;2023-06-01T02:35:02;5.82;;;3.90;;
78646;SDS011;67961;43.460;3.762;2023-06-01T02:37:29;7.70;;;3.67;;
78646;SDS011;67961;43.460;3.762;2023-06-01T02:39:55;5.88;;;3.60;;
78646;SDS011;67961;43.460;3.762;2023-06-01T02:42:20;5.30;;;3.97;;
78646;SDS011;67961;43.460;3.762;2023-06-01T02:44:46;4.85;;;3.90;;
78646;SDS011;67961;43.460;3.762;2023-06-01T02:47:12;8.15;;;4.15;;
78646;SDS011;67961;43.460;3.762;2023-06-01T02:49:38;5.38;;;3.53;;
78646;SDS011;67961;43.460;3.762;2023-06-01T02:52:03;5.75;;;3.83;;
78646;SDS011;67961;43.460;3.762;2023-06-01T02:54:29;5.22;;;3.78;;
78646;SDS011;67961;43.460;3.762;2023-06-01T02:56:55;7.97;;;4.55;;
78646;SDS011;67961;43.460;3.762;2023-06-01T02:59:21;5.63;;;3.90;;
78646;SDS011;67961;43.460;3.762;2023-06-01T03:01:47;8.20;;;3.92;;
78646;SDS011;67961;43.460;3.762;2023-06-01T03:04:13;7.47;;;3.65;;
78646;SDS011;67961;43.460;3.762;2023-06-01T03:06:40;6.45;;;4.00;;
78646;SDS011;67961;43.460;3.762;2023-06-01T03:09:05;7.72;;;3.85;;
78646;SDS011;67961;43.460;3.762;2023-06-01T03:11:38;4.47;;;3.10;;
78646;SDS011;67961;43.460;3.762;2023-06-01T03:14:05;5.72;;;3.70;;
78646;SDS011;67961;43.460;3.762;2023-06-01T03:16:31;8.30;;;4.75;;
78646;SDS011;67961;43.460;3.762;2023-06-01T03:18:56;6.32;;;3.90;;
78646;SDS011;67961;43.460;3.762;2023-06-01T03:21:22;5.57;;;3.63;;
78646;SDS011;67961;43.460;3.762;2023-06-01T03:23:49;5.60;;;3.65;;
78646;SDS011;67961;43.460;3.762;2023-06-01T03:26:15;7.30;;;3.70;;
78646;SDS011;67961;43.460;3.762;2023-06-01T03:28:43;6.63;;;4.20;;
78646;SDS011;67961;43.460;3.762;2023-06-01T03:31:09;8.50;;;4.20;;
78646;SDS011;67961;43.460;3.762;2023-06-01T03:33:36;5.07;;;3.60;;
78646;SDS011;67961;43.460;3.762;2023-06-01T03:36:02;6.07;;;4.22;;
78646;SDS011;67961;43.460;3.762;2023-06-01T03:38:29;4.97;;;3.90;;
78646;SDS011;67961;43.460;3.762;2023-06-01T03:40:55;5.68;;;3.90;;
78646;SDS011;67961;43.460;3.762;2023-06-01T03:43:21;7.68;;;4.43;;
78646;SDS011;67961;43.460;3.762;2023-06-01T03:45:46;7.25;;;3.97;;
78646;SDS011;67961;43.460;3.762;2023-06-01T03:48:12;5.70;;;3.72;;
78646;SDS011;67961;43.460;3.762;2023-06-01T03:50:38;7.25;;;4.03;;
78646;SDS011;67961;43.460;3.762;2023-06-01T03:53:03;6.38;;;4.10;;
78646;SDS011;67961;43.460;3.762;2023-06-01T03:55:29;7.88;;;4.05;;
78646;SDS011;67961;43.460;3.762;2023-06-01T03:57:55;5.45;;;3.95;;
78646;SDS011;67961;43.460;3.762;2023-06-01T04:00:22;5.72;;;4.07;;
78646;SDS011;67961;43.460;3.762;2023-06-01T04:02:50;5.05;;;3.63;;
78646;SDS011;67961;43.460;3.762;2023-06-01T04:05:19;7.07;;;4.03;;
78646;SDS011;67961;43.460;3.762;2023-06-01T04:07:45;6.47;;;4.20;;
78646;SDS011;67961;43.460;3.762;2023-06-01T04:10:12;13.15;;;4.35;;
78646;SDS011;67961;43.460;3.762;2023-06-01T04:12:45;12.32;;;4.43;;
78646;SDS011;67961;43.460;3.762;2023-06-01T04:15:14;10.27;;;4.15;;
78646;SDS011;67961;43.460;3.762;2023-06-01T04:17:41;9.60;;;4.22;;
78646;SDS011;67961;43.460;3.762;2023-06-01T04:20:09;7.22;;;4.40;;
78646;SDS011;67961;43.460;3.762;2023-06-01T04:22:36;10.60;;;4.15;;
78646;SDS011;67961;43.460;3.762;2023-06-01T04:25:06;7.57;;;4.15;;
78646;SDS011;67961;43.460;3.762;2023-06-01T04:27:37;7.47;;;4.30;;
78646;SDS011;67961;43.460;3.762;2023-06-01T04:30:09;5.32;;;4.00;;
78646;SDS011;67961;43.460;3.762;2023-06-01T04:32:36;5.80;;;4.03;;
78646;SDS011;67961;43.460;3.762;2023-06-01T04:35:03;6.65;;;4.50;;
78646;SDS011;67961;43.460;3.762;2023-06-01T04:37:35;5.82;;;4.13;;
78646;SDS011;67961;43.460;3.762;2023-06-01T04:40:05;7.97;;;3.90;;
78646;SDS011;67961;43.460;3.762;2023-06-01T04:42:33;8.18;;;4.60;;
78646;SDS011;67961;43.460;3.762;2023-06-01T04:44:59;6.90;;;3.92;;
78646;SDS011;67961;43.460;3.762;2023-06-01T04:47:29;6.85;;;3.90;;
78646;SDS011;67961;43.460;3.762;2023-06-01T04:49:56;4.95;;;3.50;;
78646;SDS011;67961;43.460;3.762;2023-06-01T04:52:22;7.10;;;3.92;;
78646;SDS011;67961;43.460;3.762;2023-06-01T04:54:48;6.10;;;4.05;;
78646;SDS011;67961;43.460;3.762;2023-06-01T04:57:14;6.40;;;4.05;;
78646;SDS011;67961;43.460;3.762;2023-06-01T04:59:40;7.63;;;4.28;;
78646;SDS011;67961;43.460;3.762;2023-06-01T05:02:06;7.78;;;4.35;;
78646;SDS011;67961;43.460;3.762;2023-06-01T05:04:32;5.75;;;4.20;;
78646;SDS011;67961;43.460;3.762;2023-06-01T05:06:58;6.03;;;4.40;;
78646;SDS011;67961;43.460;3.762;2023-06-01T05:09:23;6.60;;;4.25;;
78646;SDS011;67961;43.460;3.762;2023-06-01T05:11:50;7.82;;;4.35;;
78646;SDS011;67961;43.460;3.762;2023-06-01T05:14:16;17.33;;;4.45;;
78646;SDS011;67961;43.460;3.762;2023-06-01T05:16:42;6.38;;;4.35;;
78646;SDS011;67961;43.460;3.762;2023-06-01T05:19:07;8.10;;;4.13;;
78646;SDS011;67961;43.460;3.762;2023-06-01T05:21:33;8.30;;;4.63;;
78646;SDS011;67961;43.460;3.762;2023-06-01T05:23:59;5.70;;;3.83;;
78646;SDS011;67961;43.460;3.762;2023-06-01T05:26:24;7.80;;;4.68;;
78646;SDS011;67961;43.460;3.762;2023-06-01T05:28:50;9.68;;;5.00;;
78646;SDS011;67961;43.460;3.762;2023-06-01T05:31:16;7.97;;;4.50;;
78646;SDS011;67961;43.460;3.762;2023-06-01T05:33:41;5.60;;;3.85;;
78646;SDS011;67961;43.460;3.762;2023-06-01T05:36:07;5.82;;;4.50;;
78646;SDS011;67961;43.460;3.762;2023-06-01T05:38:35;7.72;;;4.10;;
78646;SDS011;67961;43.460;3.762;2023-06-01T05:41:00;5.90;;;3.85;;
78646;SDS011;67961;43.460;3.762;2023-06-01T05:43:26;5.82;;;3.78;;
78646;SDS011;67961;43.460;3.762;2023-06-01T05:45:51;7.43;;;4.57;;
78646;SDS011;67961;43.460;3.762;2023-06-01T05:48:17;6.95;;;4.45;;
78646;SDS011;67961;43.460;3.762;2023-06-01T05:50:43;6.35;;;4.53;;
78646;SDS011;67961;43.460;3.762;2023-06-01T05:53:09;5.53;;;4.20;;
78646;SDS011;67961;43.460;3.762;2023-06-01T05:55:35;7.13;;;4.45;;
78646;SDS011;67961;43.460;3.762;2023-06-01T05:58:00;7.38;;;4.65;;
78646;SDS011;67961;43.460;3.762;2023-06-01T06:00:26;5.75;;;4.00;;
78646;SDS011;67961;43.460;3.762;2023-06-01T06:02:52;7.57;;;4.68;;
78646;SDS011;67961;43.460;3.762;2023-06-01T06:05:17;7.03;;;4.32;;
78646;SDS011;67961;43.460;3.762;2023-06-01T06:07:43;7.65;;;4.53;;
78646;SDS011;67961;43.460;3.762;2023-06-01T06:10:09;6.45;;;4.43;;
78646;SDS011;67961;43.460;3.762;2023-06-01T06:12:36;6.00;;;4.10;;
78646;SDS011;67961;43.460;3.762;2023-06-01T06:15:01;11.10;;;4.95;;
78646;SDS011;67961;43.460;3.762;2023-06-01T06:17:29;11.25;;;4.68;;
78646;SDS011;67961;43.460;3.762;2023-06-01T06:19:55;7.55;;;4.10;;
78646;SDS011;67961;43.460;3.762;2023-06-01T06:22:20;13.02;;;4.30;;
78646;SDS011;67961;43.460;3.762;2023-06-01T06:24:46;9.40;;;4.35;;
78646;SDS011;67961;43.460;3.762;2023-06-01T06:27:12;8.25;;;4.60;;
78646;SDS011;67961;43.460;3.762;2023-06-01T06:29:38;12.88;;;4.45;;
78646;SDS011;67961;43.460;3.762;2023-06-01T06:32:03;6.38;;;4.25;;
78646;SDS011;67961;43.460;3.762;2023-06-01T06:34:30;10.43;;;4.00;;
78646;SDS011;67961;43.460;3.762;2023-06-01T06:37:02;7.10;;;4.25;;
78646;SDS011;67961;43.460;3.762;2023-06-01T06:39:29;9.15;;;4.30;;
78646;SDS011;67961;43.460;3.762;2023-06-01T06:41:55;8.82;;;4.65;;
78646;SDS011;67961;43.460;3.762;2023-06-01T06:44:20;5.55;;;4.32;;
78646;SDS011;67961;43.460;3.762;2023-06-01T06:46:46;10.18;;;4.28;;
78646;SDS011;67961;43.460;3.762;2023-06-01T06:49:11;6.35;;;3.80;;
78646;SDS011;67961;43.460;3.762;2023-06-01T06:51:37;6.18;;;4.10;;
78646;SDS011;67961;43.460;3.762;2023-06-01T06:54:03;10.43;;;4.07;;
78646;SDS011;67961;43.460;3.762;2023-06-01T06:56:31;8.60;;;3.90;;
78646;SDS011;67961;43.460;3.762;2023-06-01T06:58:57;7.78;;;4.13;;
78646;SDS011;67961;43.460;3.762;2023-06-01T07:01:22;10.25;;;4.03;;
78646;SDS011;67961;43.460;3.762;2023-06-01T07:03:50;8.13;;;4.43;;
78646;SDS011;67961;43.460;3.762;2023-06-01T07:06:17;6.90;;;3.90;;
78646;SDS011;67961;43.460;3.762;2023-06-01T07:08:43;8.23;;;4.35;;
78646;SDS011;67961;43.460;3.762;2023-06-01T07:11:09;5.95;;;4.57;;
78646;SDS011;67961;43.460;3.762;2023-06-01T07:13:35;6.30;;;3.90;;
78646;SDS011;67961;43.460;3.762;2023-06-01T07:16:01;5.85;;;3.72;;
78646;SDS011;67961;43.460;3.762;2023-06-01T07:18:28;6.03;;;3.75;;
78646;SDS011;67961;43.460;3.762;2023-06-01T07:20:54;6.28;;;4.25;;
78646;SDS011;67961;43.460;3.762;2023-06-01T07:23:20;6.82;;;3.83;;
78646;SDS011;67961;43.460;3.762;2023-06-01T07:25:45;4.63;;;3.80;;
78646;SDS011;67961;43.460;3.762;2023-06-01T07:28:11;7.80;;;4.53;;
78646;SDS011;67961;43.460;3.762;2023-06-01T07:30:38;5.68;;;3.90;;
78646;SDS011;67961;43.460;3.762;2023-06-01T07:33:04;7.88;;;4.13;;
78646;SDS011;67961;43.460;3.762;2023-06-01T07:35:30;9.52;;;3.95;;
78646;SDS011;67961;43.460;3.762;2023-06-01T07:37:57;8.20;;;3.30;;
78646;SDS011;67961;43.460;3.762;2023-06-01T07:40:23;6.95;;;4.43;;
78646;SDS011;67961;43.460;3.762;2023-06-01T07:42:49;6.63;;;3.95;;
78646;SDS011;67961;43.460;3.762;2023-06-01T07:45:14;7.45;;;3.53;;
78646;SDS011;67961;43.460;3.762;2023-06-01T07:47:40;5.25;;;3.65;;
78646;SDS011;67961;43.460;3.762;2023-06-01T07:50:06;6.28;;;3.50;;
78646;SDS011;67961;43.460;3.762;2023-06-01T07:52:32;5.15;;;4.03;;
78646;SDS011;67961;43.460;3.762;2023-06-01T07:54:58;5.05;;;3.92;;
78646;SDS011;67961;43.460;3.762;2023-06-01T07:57:23;6.03;;;3.90;;
78646;SDS011;67961;43.460;3.762;2023-06-01T07:59:50;7.20;;;3.78;;
78646;SDS011;67961;43.460;3.762;2023-06-01T08:02:16;8.35;;;3.72;;
78646;SDS011;67961;43.460;3.762;2023-06-01T08:04:41;6.35;;;4.22;;
78646;SDS011;67961;43.460;3.762;2023-06-01T08:07:09;6.28;;;4.38;;
78646;SDS011;67961;43.460;3.762;2023-06-01T08:09:37;8.02;;;4.63;;
78646;SDS011;67961;43.460;3.762;2023-06-01T08:12:03;6.72;;;3.80;;
78646;SDS011;67961;43.460;3.762;2023-06-01T08:14:30;5.30;;;3.95;;
78646;SDS011;67961;43.460;3.762;2023-06-01T08:16:57;8.20;;;4.43;;
78646;SDS011;67961;43.460;3.762;2023-06-01T08:19:22;6.07;;;4.00;;
78646;SDS011;67961;43.460;3.762;2023-06-01T08:21:48;7.05;;;4.03;;
78646;SDS011;67961;43.460;3.762;2023-06-01T08:24:14;9.82;;;4.25;;
78646;SDS011;67961;43.460;3.762;2023-06-01T08:26:40;6.90;;;3.88;;
78646;SDS011;67961;43.460;3.762;2023-06-01T08:29:06;6.15;;;4.03;;
78646;SDS011;67961;43.460;3.762;2023-06-01T08:31:32;5.07;;;3.80;;
78646;SDS011;67961;43.460;3.762;2023-06-01T08:33:57;5.05;;;3.72;;
78646;SDS011;67961;43.460;3.762;2023-06-01T08:36:23;4.72;;;3.63;;
78646;SDS011;67961;43.460;3.762;2023-06-01T08:38:49;5.20;;;3.63;;
78646;SDS011;67961;43.460;3.762;2023-06-01T08:41:20;6.00;;;4.07;;
78646;SDS011;67961;43.460;3.762;2023-06-01T08:44:02;5.22;;;3.60;;
78646;SDS011;67961;43.460;3.762;2023-06-01T08:46:32;11.63;;;4.38;;
78646;SDS011;67961;43.460;3.762;2023-06-01T08:49:01;7.40;;;3.90;;
78646;SDS011;67961;43.460;3.762;2023-06-01T08:51:27;7.95;;;4.80;;
78646;SDS011;67961;43.460;3.762;2023-06-01T08:53:58;6.32;;;3.72;;
78646;SDS011;67961;43.460;3.762;2023-06-01T08:56:28;7.07;;;4.25;;
78646;SDS011;67961;43.460;3.762;2023-06-01T08:58:53;6.53;;;3.92;;
78646;SDS011;67961;43.460;3.762;2023-06-01T09:01:21;4.60;;;4.00;;
78646;SDS011;67961;43.460;3.762;2023-06-01T09:03:48;8.80;;;4.30;;
78646;SDS011;67961;43.460;3.762;2023-06-01T09:06:15;5.78;;;4.07;;
78646;SDS011;67961;43.460;3.762;2023-06-01T09:08:41;7.50;;;3.83;;
78646;SDS011;67961;43.460;3.762;2023-06-01T09:11:07;6.40;;;4.32;;
78646;SDS011;67961;43.460;3.762;2023-06-01T09:13:33;5.18;;;4.07;;
78646;SDS011;67961;43.460;3.762;2023-06-01T09:16:00;5.55;;;3.95;;
78646;SDS011;67961;43.460;3.762;2023-06-01T09:18:26;5.25;;;3.60;;
78646;SDS011;67961;43.460;3.762;2023-06-01T09:20:52;5.20;;;3.85;;
78646;SDS011;67961;43.460;3.762;2023-06-01T09:23:25;8.25;;;4.28;;
78646;SDS011;67961;43.460;3.762;2023-06-01T09:28:58;5.45;;;3.90;;
78646;SDS011;67961;43.460;3.762;2023-06-01T09:34:07;6.37;;;4.17;;
78646;SDS011;67961;43.460;3.762;2023-06-01T09:36:35;6.40;;;4.05;;
78646;SDS011;67961;43.460;3.762;2023-06-01T09:39:08;6.90;;;4.60;;
78646;SDS011;67961;43.460;3.762;2023-06-01T09:47:11;4.82;;;3.80;;
78646;SDS011;67961;43.460;3.762;2023-06-01T09:49:43;6.00;;;4.05;;
78646;SDS011;67961;43.460;3.762;2023-06-01T09:52:13;6.10;;;4.45;;
78646;SDS011;67961;43.460;3.762;2023-06-01T09:54:45;9.65;;;4.82;;
78646;SDS011;67961;43.460;3.762;2023-06-01T09:57:12;6.60;;;4.15;;
78646;SDS011;67961;43.460;3.762;2023-06-01T09:59:45;7.40;;;4.68;;
78646;SDS011;67961;43.460;3.762;2023-06-01T10:02:13;9.05;;;4.72;;
78646;SDS011;67961;43.460;3.762;2023-06-01T10:04:41;7.30;;;4.43;;
78646;SDS011;67961;43.460;3.762;2023-06-01T10:07:10;7.78;;;4.55;;
78646;SDS011;67961;43.460;3.762;2023-06-01T10:09:38;9.50;;;4.88;;
78646;SDS011;67961;43.460;3.762;2023-06-01T10:12:07;7.32;;;4.70;;
78646;SDS011;67961;43.460;3.762;2023-06-01T10:14:37;8.18;;;4.70;;
78646;SDS011;67961;43.460;3.762;2023-06-01T10:17:04;10.45;;;4.80;;
78646;SDS011;67961;43.460;3.762;2023-06-01T10:19:30;15.73;;;4.93;;
78646;SDS011;67961;43.460;3.762;2023-06-01T10:21:59;7.50;;;4.57;;
78646;SDS011;67961;43.460;3.762;2023-06-01T10:24:25;6.93;;;4.45;;
78646;SDS011;67961;43.460;3.762;2023-06-01T10:29:54;10.23;;;4.23;;
78646;SDS011;67961;43.460;3.762;2023-06-01T10:35:02;6.70;;;4.43;;
78646;SDS011;67961;43.460;3.762;2023-06-01T10:37:32;9.60;;;4.50;;
78646;SDS011;67961;43.460;3.762;2023-06-01T10:42:47;12.38;;;6.10;;
78646;SDS011;67961;43.460;3.762;2023-06-01T10:45:58;7.10;;;4.57;;
78646;SDS011;67961;43.460;3.762;2023-06-01T10:47:58;8.15;;;5.78;;
78646;SDS011;67961;43.460;3.762;2023-06-01T10:50:25;8.07;;;4.93;;
78646;SDS011;67961;43.460;3.762;2023-06-01T10:52:51;8.23;;;4.40;;
78646;SDS011;67961;43.460;3.762;2023-06-01T10:55:19;13.15;;;5.80;;
78646;SDS011;67961;43.460;3.762;2023-06-01T10:57:46;22.08;;;13.20;;
78646;SDS011;67961;43.460;3.762;2023-06-01T11:00:25;8.85;;;6.88;;
78646;SDS011;67961;43.460;3.762;2023-06-01T11:05:36;13.18;;;8.45;;
78646;SDS011;67961;43.460;3.762;2023-06-01T11:13:18;10.15;;;7.95;;
78646;SDS011;67961;43.460;3.762;2023-06-01T11:21:11;27.13;;;20.40;;
78646;SDS011;67961;43.460;3.762;2023-06-01T11:23:46;17.33;;;13.63;;
78646;SDS011;67961;43.460;3.762;2023-06-01T11:26:16;14.13;;;10.93;;
78646;SDS011;67961;43.460;3.762;2023-06-01T11:28:43;18.75;;;13.40;;
78646;SDS011;67961;43.460;3.762;2023-06-01T11:31:10;12.30;;;9.00;;
78646;SDS011;67961;43.460;3.762;2023-06-01T11:33:38;10.90;;;7.35;;
78646;SDS011;67961;43.460;3.762;2023-06-01T11:36:05;9.30;;;7.57;;
78646;SDS011;67961;43.460;3.762;2023-06-01T11:38:39;12.38;;;9.20;;
78646;SDS011;67961;43.460;3.762;2023-06-01T11:41:06;9.32;;;7.15;;
78646;SDS011;67961;43.460;3.762;2023-06-01T11:43:33;12.43;;;9.65;;
78646;SDS011;67961;43.460;3.762;2023-06-01T11:46:03;10.32;;;7.00;;
78646;SDS011;67961;43.460;3.762;2023-06-01T11:48:30;7.78;;;5.70;;
78646;SDS011;67961;43.460;3.762;2023-06-01T11:50:57;7.45;;;5.00;;
78646;SDS011;67961;43.460;3.762;2023-06-01T11:53:25;10.63;;;7.25;;
78646;SDS011;67961;43.460;3.762;2023-06-01T11:55:55;12.13;;;6.28;;
78646;SDS011;67961;43.460;3.762;2023-06-01T12:00:51;8.25;;;5.65;;
78646;SDS011;67961;43.460;3.762;2023-06-01T12:03:17;12.68;;;7.18;;
78646;SDS011;67961;43.460;3.762;2023-06-01T12:05:43;7.25;;;5.20;;
78646;SDS011;67961;43.460;3.762;2023-06-01T12:08:20;8.48;;;5.35;;
78646;SDS011;67961;43.460;3.762;2023-06-01T12:10:48;7.97;;;5.10;;
78646;SDS011;67961;43.460;3.762;2023-06-01T12:13:19;7.85;;;5.68;;
78646;SDS011;67961;43.460;3.762;2023-06-01T12:15:45;7.20;;;5.03;;
78646;SDS011;67961;43.460;3.762;2023-06-01T12:18:11;6.80;;;5.07;;
78646;SDS011;67961;43.460;3.762;2023-06-01T12:20:39;10.98;;;5.05;;
78646;SDS011;67961;43.460;3.762;2023-06-01T12:23:12;8.23;;;4.80;;
78646;SDS011;67961;43.460;3.762;2023-06-01T12:25:56;11.07;;;5.03;;
78646;SDS011;67961;43.460;3.762;2023-06-01T12:28:24;8.98;;;4.82;;
78646;SDS011;67961;43.460;3.762;2023-06-01T12:31:14;6.80;;;4.82;;
78646;SDS011;67961;43.460;3.762;2023-06-01T12:33:41;7.30;;;4.43;;
78646;SDS011;67961;43.460;3.762;2023-06-01T12:36:09;6.65;;;4.43;;
78646;SDS011;67961;43.460;3.762;2023-06-01T12:38:40;7.65;;;4.72;;
78646;SDS011;67961;43.460;3.762;2023-06-01T12:41:14;5.65;;;4.10;;
78646;SDS011;67961;43.460;3.762;2023-06-01T12:43:46;7.07;;;4.78;;
78646;SDS011;67961;43.460;3.762;2023-06-01T12:48:49;6.43;;;4.15;;
78646;SDS011;67961;43.460;3.762;2023-06-01T12:51:16;8.23;;;4.30;;
78646;SDS011;67961;43.460;3.762;2023-06-01T12:53:42;7.18;;;4.97;;
78646;SDS011;67961;43.460;3.762;2023-06-01T12:56:08;9.55;;;4.80;;
78646;SDS011;67961;43.460;3.762;2023-06-01T12:58:35;6.55;;;4.50;;
78646;SDS011;67961;43.460;3.762;2023-06-01T13:01:01;8.27;;;4.88;;
78646;SDS011;67961;43.460;3.762;2023-06-01T13:03:27;6.63;;;4.35;;
78646;SDS011;67961;43.460;3.762;2023-06-01T13:05:53;6.90;;;4.50;;
78646;SDS011;67961;43.460;3.762;2023-06-01T13:08:19;6.95;;;4.50;;
78646;SDS011;67961;43.460;3.762;2023-06-01T13:10:45;5.95;;;4.40;;
78646;SDS011;67961;43.460;3.762;2023-06-01T13:13:11;5.20;;;4.20;;
78646;SDS011;67961;43.460;3.762;2023-06-01T13:15:41;6.03;;;4.40;;
78646;SDS011;67961;43.460;3.762;2023-06-01T13:18:07;6.25;;;4.78;;
78646;SDS011;67961;43.460;3.762;2023-06-01T13:20:33;11.20;;;4.40;;
78646;SDS011;67961;43.460;3.762;2023-06-01T13:22:59;7.88;;;4.70;;
78646;SDS011;67961;43.460;3.762;2023-06-01T13:25:25;8.85;;;5.70;;
78646;SDS011;67961;43.460;3.762;2023-06-01T13:27:51;6.75;;;4.80;;
78646;SDS011;67961;43.460;3.762;2023-06-01T13:30:17;7.00;;;4.80;;
78646;SDS011;67961;43.460;3.762;2023-06-01T13:32:43;6.93;;;5.15;;
78646;SDS011;67961;43.460;3.762;2023-06-01T13:35:09;8.50;;;5.53;;
78646;SDS011;67961;43.460;3.762;2023-06-01T13:37:36;7.60;;;4.25;;
78646;SDS011;67961;43.460;3.762;2023-06-01T13:40:02;7.47;;;4.40;;
78646;SDS011;67961;43.460;3.762;2023-06-01T13:42:30;6.13;;;4.25;;
78646;SDS011;67961;43.460;3.762;2023-06-01T13:44:56;7.15;;;4.57;;
78646;SDS011;67961;43.460;3.762;2023-06-01T13:47:21;8.13;;;4.30;;
78646;SDS011;67961;43.460;3.762;2023-06-01T13:49:47;6.35;;;4.75;;
78646;SDS011;67961;43.460;3.762;2023-06-01T13:52:13;9.35;;;5.15;;
78646;SDS011;67961;43.460;3.762;2023-06-01T13:54:38;7.25;;;4.43;;
78646;SDS011;67961;43.460;3.762;2023-06-01T13:57:04;6.75;;;4.90;;
78646;SDS011;67961;43.460;3.762;2023-06-01T13:59:30;6.18;;;4.32;;
78646;SDS011;67961;43.460;3.762;2023-06-01T14:01:57;8.90;;;5.13;;
78646;SDS011;67961;43.460;3.762;2023-06-01T14:04:22;8.20;;;4.72;;
78646;SDS011;67961;43.460;3.762;2023-06-01T14:06:48;7.40;;;4.47;;
78646;SDS011;67961;43.460;3.762;2023-06-01T14:09:17;6.47;;;4.80;;
78646;SDS011;67961;43.460;3.762;2023-06-01T14:11:43;8.43;;;5.43;;
78646;SDS011;67961;43.460;3.762;2023-06-01T14:14:09;7.75;;;4.93;;
78646;SDS011;67961;43.460;3.762;2023-06-01T14:16:35;7.90;;;4.43;;
78646;SDS011;67961;43.460;3.762;2023-06-01T14:19:00;7.38;;;5.43;;
78646;SDS011;67961;43.460;3.762;2023-06-01T14:21:26;7.15;;;4.70;;
78646;SDS011;67961;43.460;3.762;2023-06-01T14:23:53;7.25;;;4.55;;
78646;SDS011;67961;43.460;3.762;2023-06-01T14:26:19;8.88;;;5.40;;
78646;SDS011;67961;43.460;3.762;2023-06-01T14:28:46;9.10;;;5.43;;
78646;SDS011;67961;43.460;3.762;2023-06-01T14:31:11;8.32;;;5.30;;
78646;SDS011;67961;43.460;3.762;2023-06-01T14:33:37;7.25;;;4.75;;
78646;SDS011;67961;43.460;3.762;2023-06-01T14:36:03;17.05;;;5.13;;
78646;SDS011;67961;43.460;3.762;2023-06-01T14:38:29;9.93;;;5.05;;
78646;SDS011;67961;43.460;3.762;2023-06-01T14:40:55;5.80;;;4.18;;
78646;SDS011;67961;43.460;3.762;2023-06-01T14:43:21;7.47;;;4.75;;
78646;SDS011;67961;43.460;3.762;2023-06-01T14:45:47;8.10;;;5.60;;
78646;SDS011;67961;43.460;3.762;2023-06-01T14:48:12;7.03;;;4.78;;
78646;SDS011;67961;43.460;3.762;2023-06-01T14:50:38;7.55;;;4.53;;
78646;SDS011;67961;43.460;3.762;2023-06-01T14:53:04;7.72;;;4.65;;
78646;SDS011;67961;43.460;3.762;2023-06-01T14:55:29;7.63;;;4.90;;
78646;SDS011;67961;43.460;3.762;2023-06-01T14:57:55;6.75;;;4.45;;
78646;SDS011;67961;43.460;3.762;2023-06-01T15:00:21;6.50;;;4.32;;
78646;SDS011;67961;43.460;3.762;2023-06-01T15:02:46;7.00;;;4.85;;
78646;SDS011;67961;43.460;3.762;2023-06-01T15:05:12;6.78;;;5.00;;
78646;SDS011;67961;43.460;3.762;2023-06-01T15:07:38;10.68;;;4.93;;
78646;SDS011;67961;43.460;3.762;2023-06-01T15:10:04;9.13;;;4.40;;
78646;SDS011;67961;43.460;3.762;2023-06-01T15:12:30;7.28;;;4.35;;
78646;SDS011;67961;43.460;3.762;2023-06-01T15:14:56;10.13;;;4.22;;
78646;SDS011;67961;43.460;3.762;2023-06-01T15:17:21;7.40;;;4.43;;
78646;SDS011;67961;43.460;3.762;2023-06-01T15:19:47;6.88;;;4.40;;
78646;SDS011;67961;43.460;3.762;2023-06-01T15:22:15;8.70;;;4.38;;
78646;SDS011;67961;43.460;3.762;2023-06-01T15:24:41;6.82;;;4.60;;
78646;SDS011;67961;43.460;3.762;2023-06-01T15:27:07;7.32;;;4.43;;
78646;SDS011;67961;43.460;3.762;2023-06-01T15:29:33;9.32;;;4.47;;
78646;SDS011;67961;43.460;3.762;2023-06-01T15:31:58;5.97;;;4.28;;
78646;SDS011;67961;43.460;3.762;2023-06-01T15:34:24;8.90;;;4.45;;
78646;SDS011;67961;43.460;3.762;2023-06-01T15:36:50;7.68;;;4.40;;
78646;SDS011;67961;43.460;3.762;2023-06-01T15:39:15;8.02;;;4.05;;